Time;durP1;ratioP1;P1;durP2;ratioP2;P2;SDS_P1;SDS_P2;PMS_P1;PMS_P2;Temp;Humidity;BMP_temperature;BMP_pressure;BME280_temperature;BME280_humidity;BME280_pressure;Samples;Min_cycle;Max_cycle;Signal;HPM_P1;HPM_P2
2023/05/14 00:02:12;;;;;;;23.08;12.68;;;;;;;14.62;100.00;101762.88;5085237;28;20089;-72
2023/05/14 00:04:37;;;;;;;22.10;12.25;;;;;;;14.68;100.00;101755.78;5083269;28;20032;-68
2023/05/14 00:07:02;;;;;;;23.33;13.10;;;;;;;14.72;100.00;101752.25;5086284;28;20031;-66
2023/05/14 00:09:29;;;;;;;21.67;12.48;;;;;;;14.72;100.00;101755.81;5082483;28;20029;-72
2023/05/14 00:11:54;;;;;;;25.33;13.02;;;;;;;14.80;100.00;101747.84;5085423;28;20059;-72
2023/05/14 00:14:20;;;;;;;22.70;12.88;;;;;;;14.87;100.00;101744.28;5083792;28;20059;-73
2023/05/14 00:16:45;;;;;;;23.38;12.52;;;;;;;14.79;100.00;101744.28;5084118;28;20383;-73
2023/05/14 00:19:11;;;;;;;22.35;12.90;;;;;;;14.70;100.00;101736.28;5084756;28;20027;-68
2023/05/14 00:21:36;;;;;;;22.75;12.95;;;;;;;14.68;100.00;101735.41;5082849;28;20040;-72
2023/05/14 00:24:01;;;;;;;23.02;12.82;;;;;;;14.62;100.00;101744.25;5085798;28;20069;-72
2023/05/14 00:26:27;;;;;;;23.05;13.35;;;;;;;14.59;100.00;101751.28;5081371;28;20060;-68
2023/05/14 00:28:52;;;;;;;22.70;12.90;;;;;;;14.38;100.00;101750.38;5085164;28;20024;-68
2023/05/14 00:31:17;;;;;;;23.90;13.43;;;;;;;14.33;100.00;101744.16;5083637;28;20024;-68
2023/05/14 00:33:43;;;;;;;22.98;13.45;;;;;;;14.21;100.00;101742.34;5083408;28;20033;-72
2023/05/14 00:36:08;;;;;;;22.70;14.05;;;;;;;14.29;100.00;101735.25;5084992;28;20467;-68
2023/05/14 00:38:34;;;;;;;23.15;14.20;;;;;;;14.29;100.00;101745.91;5082065;28;20048;-68
2023/05/14 00:40:59;;;;;;;24.17;13.68;;;;;;;14.25;100.00;101733.47;5085333;28;20024;-68
2023/05/14 00:43:24;;;;;;;23.48;14.35;;;;;;;14.23;100.00;101735.25;5082426;28;20062;-69
2023/05/14 00:45:51;;;;;;;24.10;14.52;;;;;;;14.21;100.00;101736.13;5084159;28;20032;-68
2023/05/14 00:48:18;;;;;;;23.33;14.57;;;;;;;14.04;100.00;101730.75;5083489;28;20086;-68
2023/05/14 00:50:43;;;;;;;24.85;14.77;;;;;;;14.04;100.00;101731.63;5083308;28;20056;-70
2023/05/14 00:53:10;;;;;;;25.08;15.23;;;;;;;13.90;100.00;101718.28;5084478;28;20107;-69
2023/05/14 00:55:37;;;;;;;25.35;15.27;;;;;;;13.88;100.00;101727.16;5082111;28;20032;-68
2023/05/14 00:58:06;;;;;;;23.98;15.23;;;;;;;13.90;100.00;101723.59;5085082;28;20028;-69
2023/05/14 01:00:31;;;;;;;23.60;14.80;;;;;;;13.83;100.00;101729.75;5077953;28;20035;-70
2023/05/14 01:03:00;;;;;;;24.45;15.38;;;;;;;13.77;100.00;101724.41;5084995;28;20028;-71
2023/05/14 01:05:35;;;;;;;24.20;15.18;;;;;;;13.78;100.00;101721.78;5082146;28;20063;-72
2023/05/14 01:08:12;;;;;;;25.27;16.45;;;;;;;13.69;100.00;101721.72;5077611;28;20028;-69
2023/05/14 01:10:44;;;;;;;25.17;16.15;;;;;;;13.59;100.00;101723.44;5078751;28;20021;-71
2023/05/14 01:13:21;;;;;;;24.65;16.67;;;;;;;13.58;100.00;101724.31;5084122;28;20466;-69
2023/05/14 01:15:47;;;;;;;25.10;16.50;;;;;;;13.57;100.00;101719.00;5083280;28;20241;-69
2023/05/14 01:18:15;;;;;;;25.67;16.70;;;;;;;13.44;100.00;101734.00;5083620;28;20433;-69
2023/05/14 01:20:41;;;;;;;25.05;16.73;;;;;;;13.46;100.00;101724.25;5082135;28;20501;-71
2023/05/14 01:23:06;;;;;;;25.98;17.33;;;;;;;13.43;100.00;101713.63;5084318;28;20123;-73
2023/05/14 01:25:32;;;;;;;26.45;17.10;;;;;;;13.39;100.00;101717.13;5081262;28;20063;-68
2023/05/14 01:28:10;;;;;;;25.35;17.35;;;;;;;13.32;100.00;101725.88;5084237;28;20428;-73
2023/05/14 01:30:39;;;;;;;26.75;17.25;;;;;;;13.31;100.00;101724.09;5077968;28;20032;-68
2023/05/14 01:33:13;;;;;;;25.50;17.25;;;;;;;13.22;100.00;101719.63;5084636;28;20111;-66
2023/05/14 01:35:39;;;;;;;27.75;17.90;;;;;;;13.19;100.00;101709.88;5081584;28;20368;-69
2023/05/14 01:38:08;;;;;;;28.75;18.00;;;;;;;13.25;100.00;101712.56;5084114;28;20032;-70
2023/05/14 01:40:35;;;;;;;25.83;17.90;;;;;;;13.21;100.00;101708.13;5081175;28;20475;-68
2023/05/14 01:43:02;;;;;;;27.23;18.48;;;;;;;13.15;100.00;101702.78;5076958;28;20068;-68
2023/05/14 01:45:29;;;;;;;26.75;18.42;;;;;;;13.15;100.00;101705.44;5084057;28;20454;-74
2023/05/14 01:47:54;;;;;;;25.05;18.27;;;;;;;13.02;100.00;101703.56;5081475;28;20078;-68
2023/05/14 01:50:19;;;;;;;26.60;18.55;;;;;;;12.99;100.00;101711.47;5083023;28;20020;-73
2023/05/14 01:52:47;;;;;;;26.30;18.23;;;;;;;12.96;100.00;101711.44;5082773;28;20109;-67
2023/05/14 01:55:12;;;;;;;26.30;18.88;;;;;;;12.89;100.00;101713.19;5082141;28;20040;-70
2023/05/14 01:57:37;;;;;;;26.70;18.58;;;;;;;12.86;100.00;101711.38;5083850;28;20383;-71
2023/05/14 02:00:03;;;;;;;27.50;19.25;;;;;;;12.79;100.00;101713.97;5080860;28;20107;-68
2023/05/14 02:02:29;;;;;;;27.00;19.20;;;;;;;12.64;100.00;101718.25;5084140;28;20039;-69
2023/05/14 02:04:54;;;;;;;27.63;19.63;;;;;;;12.69;100.00;101702.38;5081393;28;20036;-71
2023/05/14 02:07:19;;;;;;;27.10;19.35;;;;;;;12.60;100.00;101705.84;5064615;28;20039;-71
2023/05/14 02:09:45;;;;;;;27.05;19.13;;;;;;;12.66;100.00;101699.72;5082621;28;20028;-67
2023/05/14 02:12:10;;;;;;;26.30;19.23;;;;;;;12.62;100.00;101696.13;5081291;28;20025;-67
2023/05/14 02:14:36;;;;;;;27.02;19.70;;;;;;;12.52;100.00;101700.47;5084171;28;20459;-66
2023/05/14 02:17:02;;;;;;;28.52;20.20;;;;;;;12.47;100.00;101696.88;5080807;28;20024;-67
2023/05/14 02:19:28;;;;;;;29.05;20.25;;;;;;;12.51;100.00;101704.00;5083699;28;20471;-67
2023/05/14 02:21:53;;;;;;;28.98;20.65;;;;;;;12.52;100.00;101691.59;5081189;28;20035;-68
2023/05/14 02:24:18;;;;;;;28.67;20.63;;;;;;;12.59;100.00;101706.72;5082559;28;20029;-67
2023/05/14 02:26:44;;;;;;;28.35;20.45;;;;;;;12.68;100.00;101700.59;5082574;28;20123;-66
2023/05/14 02:29:09;;;;;;;28.20;20.33;;;;;;;12.71;100.00;101701.53;5080952;28;20037;-70
2023/05/14 02:31:34;;;;;;;27.08;20.13;;;;;;;12.63;100.00;101691.72;5084524;28;20029;-66
2023/05/14 02:34:00;;;;;;;27.38;19.75;;;;;;;12.62;100.00;101703.19;5076201;28;20027;-67
2023/05/14 02:36:26;;;;;;;28.60;21.02;;;;;;;12.51;100.00;101689.84;5083512;28;20107;-66
2023/05/14 02:38:51;;;;;;;28.92;20.95;;;;;;;12.55;100.00;101692.53;5081290;28;20490;-67
2023/05/14 02:41:17;;;;;;;27.33;20.52;;;;;;;12.53;100.00;101693.41;5081961;28;20032;-66
2023/05/14 02:43:42;;;;;;;28.40;20.05;;;;;;;12.55;100.00;101694.28;5082875;28;20044;-67
2023/05/14 02:46:07;;;;;;;28.60;21.25;;;;;;;12.54;100.00;101682.78;5080567;28;20025;-66
2023/05/14 02:48:33;;;;;;;29.50;21.13;;;;;;;12.66;100.00;101694.41;5083685;28;20111;-67
2023/05/14 02:50:59;;;;;;;28.48;20.88;;;;;;;12.64;100.00;101701.44;5083560;28;20024;-66
2023/05/14 02:53:24;;;;;;;29.80;20.67;;;;;;;12.66;100.00;101689.97;5086585;28;20027;-67
2023/05/14 02:55:49;;;;;;;27.95;20.75;;;;;;;12.62;100.00;101700.56;5085514;28;20028;-67
2023/05/14 02:58:15;;;;;;;28.42;21.42;;;;;;;12.57;100.00;101703.16;5085481;28;20071;-67
2023/05/14 03:00:40;;;;;;;29.02;21.63;;;;;;;12.50;100.00;101699.56;5068629;28;20021;-67
2023/05/14 03:03:06;;;;;;;30.33;21.98;;;;;;;12.44;100.00;101702.16;5084010;28;20025;-68
2023/05/14 03:05:31;;;;;;;28.75;21.48;;;;;;;12.35;100.00;101696.75;5087597;28;20115;-67
2023/05/14 03:07:57;;;;;;;30.60;21.70;;;;;;;12.33;100.00;101698.47;5084187;28;20514;-67
2023/05/14 03:10:22;;;;;;;29.88;21.63;;;;;;;12.25;100.00;101697.53;5086079;28;20376;-67
2023/05/14 03:12:48;;;;;;;29.25;21.95;;;;;;;12.22;100.00;101695.72;5085362;28;20067;-67
2023/05/14 03:15:13;;;;;;;29.63;22.52;;;;;;;12.17;100.00;101687.72;5084927;28;20077;-67
2023/05/14 03:17:39;;;;;;;29.85;22.33;;;;;;;12.18;100.00;101686.84;5086731;28;20111;-66
2023/05/14 03:20:05;;;;;;;30.67;22.77;;;;;;;12.01;100.00;101685.75;5083855;28;20032;-66
2023/05/14 03:22:30;;;;;;;29.55;22.48;;;;;;;12.03;100.00;101681.38;5069056;28;20032;-66
2023/05/14 03:24:55;;;;;;;30.95;22.63;;;;;;;11.96;100.00;101685.72;5084166;28;20062;-66
2023/05/14 03:27:21;;;;;;;29.38;22.67;;;;;;;11.86;100.00;101678.50;5085694;28;20071;-66
2023/05/14 03:29:46;;;;;;;30.83;23.05;;;;;;;11.86;100.00;101678.50;5085306;28;20032;-67
2023/05/14 03:32:11;;;;;;;29.63;22.50;;;;;;;11.78;100.00;101673.09;5084333;28;20032;-67
2023/05/14 03:34:37;;;;;;;31.80;23.40;;;;;;;11.77;100.00;101670.44;5086574;28;20154;-69
2023/05/14 03:37:03;;;;;;;30.90;23.48;;;;;;;11.67;100.00;101669.41;5083303;28;20032;-71
2023/05/14 03:39:28;;;;;;;29.65;23.02;;;;;;;11.66;100.00;101678.22;5086490;28;20086;-74
2023/05/14 03:41:55;;;;;;;34.05;23.65;;;;;;;11.57;100.00;101673.69;5084020;28;20042;-73
2023/05/14 03:44:21;;;;;;;31.15;23.63;;;;;;;11.54;100.00;101676.31;5085044;28;20045;-73
2023/05/14 03:46:46;;;;;;;31.33;23.80;;;;;;;11.51;100.00;101674.50;5085383;28;20089;-74
2023/05/14 03:49:12;;;;;;;30.55;23.88;;;;;;;11.39;100.00;101677.00;5083860;28;20067;-72
2023/05/14 03:51:37;;;;;;;31.63;23.95;;;;;;;11.42;100.00;101673.50;5086433;28;20028;-73
2023/05/14 03:54:03;;;;;;;30.77;24.27;;;;;;;11.34;100.00;101676.03;5082990;28;20063;-73
2023/05/14 03:56:28;;;;;;;31.83;24.23;;;;;;;11.28;100.00;101668.00;5085868;28;20032;-70
2023/05/14 03:58:53;;;;;;;32.38;25.13;;;;;;;11.40;100.00;101676.13;5083977;28;20024;-74
2023/05/14 04:01:19;;;;;;;33.17;25.27;;;;;;;11.34;100.00;101676.94;5084531;28;20032;-71
2023/05/14 04:03:44;;;;;;;32.03;25.05;;;;;;;11.26;100.00;101673.28;5085024;28;20039;-69
2023/05/14 04:06:09;;;;;;;32.25;24.88;;;;;;;11.19;100.00;101670.53;5083421;28;20074;-73
2023/05/14 04:08:35;;;;;;;32.83;25.65;;;;;;;11.20;100.00;101667.91;5086082;28;20050;-68
2023/05/14 04:11:00;;;;;;;33.42;26.23;;;;;;;11.16;100.00;101668.72;5082402;28;20028;-74
2023/05/14 04:13:25;;;;;;;33.72;26.25;;;;;;;11.12;100.00;101666.88;5067422;28;20027;-73
2023/05/14 04:15:51;;;;;;;32.47;26.02;;;;;;;11.15;100.00;101667.84;5083880;28;20024;-69
2023/05/14 04:18:16;;;;;;;32.92;25.73;;;;;;;11.13;100.00;101677.50;5083917;28;20136;-73
2023/05/14 04:20:41;;;;;;;32.90;26.23;;;;;;;11.10;100.00;101672.16;5085251;28;20027;-67
2023/05/14 04:23:07;;;;;;;32.05;24.98;;;;;;;11.09;100.00;101673.00;5082633;28;20036;-67
2023/05/14 04:25:33;;;;;;;33.03;25.45;;;;;;;11.04;100.00;101672.06;5086215;28;20031;-66
2023/05/14 04:27:58;;;;;;;34.70;26.27;;;;;;;11.06;100.00;101675.63;5082768;28;20025;-74
2023/05/14 04:30:23;;;;;;;34.33;25.90;;;;;;;11.08;100.00;101671.25;5084562;28;20056;-72
2023/05/14 04:32:49;;;;;;;32.65;26.55;;;;;;;11.11;100.00;101668.66;5084033;28;20054;-74
2023/05/14 04:35:14;;;;;;;32.67;26.23;;;;;;;11.07;100.00;101661.53;5083182;28;20032;-73
2023/05/14 04:37:40;;;;;;;34.70;26.50;;;;;;;11.03;100.00;101667.63;5085096;28;20035;-70
2023/05/14 04:40:06;;;;;;;32.40;25.80;;;;;;;11.03;100.00;101659.69;5082309;28;20024;-71
2023/05/14 04:42:32;;;;;;;32.67;25.52;;;;;;;11.05;100.00;101673.81;5077767;28;20048;-69
2023/05/14 04:44:57;;;;;;;32.75;25.33;;;;;;;11.03;100.00;101669.41;5084838;28;20050;-72
2023/05/14 04:47:23;;;;;;;33.03;25.15;;;;;;;10.99;100.00;101664.06;5083163;28;20032;-69
2023/05/14 04:49:48;;;;;;;32.90;24.83;;;;;;;11.02;100.00;101671.13;5083623;28;20020;-73
2023/05/14 04:52:14;;;;;;;31.98;24.58;;;;;;;11.02;100.00;101668.50;5084205;28;20463;-69
2023/05/14 04:54:39;;;;;;;32.10;24.77;;;;;;;11.02;100.00;101671.13;5082293;28;20433;-69
2023/05/14 04:57:04;;;;;;;32.95;25.15;;;;;;;11.01;100.00;101669.38;5085273;28;20032;-70
2023/05/14 04:59:30;;;;;;;31.75;24.08;;;;;;;11.05;100.00;101671.19;5081802;28;20545;-70
2023/05/14 05:01:55;;;;;;;33.25;25.40;;;;;;;11.06;100.00;101678.25;5084692;28;20463;-69
2023/05/14 05:04:22;;;;;;;33.30;24.73;;;;;;;11.07;100.00;101677.41;5082921;28;20459;-71
2023/05/14 05:06:48;;;;;;;32.53;24.83;;;;;;;11.16;100.00;101677.53;5083292;28;20040;-72
2023/05/14 05:09:15;;;;;;;33.85;24.77;;;;;;;11.13;100.00;101682.78;5084493;28;20420;-70
2023/05/14 05:11:40;;;;;;;33.65;24.70;;;;;;;11.19;100.00;101679.34;5081844;28;20055;-70
2023/05/14 05:14:05;;;;;;;32.95;24.10;;;;;;;11.30;100.00;101676.84;5084526;28;20059;-72
2023/05/14 05:16:31;;;;;;;33.67;24.58;;;;;;;11.27;100.00;101682.09;5081642;28;20024;-71
2023/05/14 05:18:56;;;;;;;33.35;24.00;;;;;;;11.27;100.00;101684.75;5066124;28;20089;-73
2023/05/14 05:21:21;;;;;;;32.42;23.33;;;;;;;11.39;100.00;101690.22;5082792;28;20493;-69
2023/05/14 05:23:47;;;;;;;31.98;23.33;;;;;;;11.39;100.00;101690.22;5082582;28;20463;-71
2023/05/14 05:26:12;;;;;;;32.72;23.50;;;;;;;11.44;100.00;101691.16;5083801;28;20110;-70
2023/05/14 05:28:37;;;;;;;31.50;23.15;;;;;;;11.45;100.00;101695.59;5081347;28;20039;-72
2023/05/14 05:31:03;;;;;;;31.88;23.08;;;;;;;11.51;100.00;101693.03;5084377;28;20028;-70
2023/05/14 05:33:28;;;;;;;31.33;22.67;;;;;;;11.55;100.00;101686.03;5081509;28;20036;-67
2023/05/14 05:35:54;;;;;;;31.45;22.58;;;;;;;11.56;100.00;101694.88;5083500;28;20033;-72
2023/05/14 05:38:19;;;;;;;32.20;22.50;;;;;;;11.57;100.00;101688.72;5082766;28;20028;-69
2023/05/14 05:40:44;;;;;;;31.55;22.48;;;;;;;11.63;100.00;101686.13;5082140;28;20372;-70
2023/05/14 05:43:10;;;;;;;31.15;22.13;;;;;;;11.65;100.00;101690.59;5083793;28;20051;-71
2023/05/14 05:45:35;;;;;;;31.50;21.83;;;;;;;11.68;100.00;101687.09;5080886;28;20390;-70
2023/05/14 05:48:01;;;;;;;30.30;22.38;;;;;;;11.80;100.00;101692.53;5084261;28;20036;-74
2023/05/14 05:50:26;;;;;;;30.38;21.63;;;;;;;11.86;100.00;101691.72;5081622;28;20032;-73
2023/05/14 05:52:52;;;;;;;31.67;21.60;;;;;;;11.86;100.00;101691.72;5082791;28;20032;-73
2023/05/14 05:55:18;;;;;;;30.08;21.17;;;;;;;11.86;100.00;101689.97;5083017;28;20039;-70
2023/05/14 05:57:43;;;;;;;30.83;21.58;;;;;;;11.88;100.00;101699.69;5081541;28;20052;-73
2023/05/14 06:00:12;;;;;;;30.08;21.40;;;;;;;11.95;100.00;101693.66;5083978;28;20489;-72
2023/05/14 06:02:38;;;;;;;31.42;21.42;;;;;;;11.99;100.00;101708.72;5080758;28;20064;-68
2023/05/14 06:05:04;;;;;;;30.70;21.40;;;;;;;12.02;100.00;101706.09;5084396;28;20449;-74
2023/05/14 06:07:29;;;;;;;30.75;21.08;;;;;;;11.99;100.00;101708.72;5080874;28;20044;-70
2023/05/14 06:09:55;;;;;;;31.02;21.75;;;;;;;11.95;100.00;101714.84;5083190;28;20119;-72
2023/05/14 06:12:20;;;;;;;28.98;20.92;;;;;;;11.83;100.00;101703.19;5082134;28;20043;-74
2023/05/14 06:14:46;;;;;;;30.27;20.65;;;;;;;11.90;100.00;101705.91;5081659;28;20484;-74
2023/05/14 06:17:11;;;;;;;31.45;21.30;;;;;;;11.89;100.00;101709.44;5083548;28;20032;-73
2023/05/14 06:19:36;;;;;;;31.25;20.88;;;;;;;11.90;100.00;101714.75;5080527;28;20028;-70
2023/05/14 06:22:02;;;;;;;29.55;20.75;;;;;;;11.95;100.00;101714.84;5084144;28;20043;-73
2023/05/14 06:24:27;;;;;;;30.42;20.98;;;;;;;12.08;100.00;101714.13;5081899;28;20494;-71
2023/05/14 06:26:52;;;;;;;30.45;20.85;;;;;;;12.10;100.00;101717.69;5086533;28;20124;-72
2023/05/14 06:29:18;;;;;;;29.10;20.73;;;;;;;12.15;100.00;101728.34;5086773;28;20481;-74
2023/05/14 06:31:43;;;;;;;30.02;20.98;;;;;;;12.16;100.00;101723.06;5085325;28;20467;-73
2023/05/14 06:34:09;;;;;;;31.98;20.42;;;;;;;12.27;100.00;101724.94;5087709;28;20378;-73
2023/05/14 06:36:34;;;;;;;29.73;20.35;;;;;;;12.43;100.00;101724.22;5084805;28;20064;-67
2023/05/14 06:39:00;;;;;;;30.10;20.13;;;;;;;12.63;100.00;101718.25;5087420;28;20529;-73
2023/05/14 06:41:25;;;;;;;30.05;20.27;;;;;;;12.77;100.00;101721.00;5085273;28;20032;-76
2023/05/14 06:43:50;;;;;;;30.30;20.90;;;;;;;12.90;100.00;101718.50;5086226;28;20047;-71
2023/05/14 06:46:16;;;;;;;29.70;20.58;;;;;;;13.00;100.00;101713.25;5086462;28;20040;-69
2023/05/14 06:48:41;;;;;;;30.33;20.67;;;;;;;13.12;100.00;101716.03;5084375;28;20166;-66
2023/05/14 06:51:07;;;;;;;29.52;19.95;;;;;;;13.24;100.00;101713.44;5087888;28;20040;-72
2023/05/14 06:53:32;;;;;;;30.25;19.88;;;;;;;13.34;100.00;101714.44;5066045;28;20031;-72
2023/05/14 06:55:57;;;;;;;28.83;19.52;;;;;;;13.50;100.00;101714.53;5086830;28;20039;-73
2023/05/14 06:58:23;;;;;;;28.35;19.88;;;;;;;13.59;100.00;101707.50;5085452;28;20051;-72
2023/05/14 07:00:48;;;;;;;30.63;20.60;;;;;;;13.70;100.00;101718.22;5085389;28;20041;-73
2023/05/14 07:03:14;;;;;;;30.48;20.50;;;;;;;13.97;100.00;101711.22;5086230;28;20035;-65
2023/05/14 07:05:40;;;;;;;29.85;20.92;;;;;;;14.17;100.00;101713.97;5083963;28;20070;-73
2023/05/14 07:08:05;;;;;;;28.45;19.85;;;;;;;14.27;100.00;101707.78;5087482;28;20383;-68
2023/05/14 07:10:31;;;;;;;29.88;19.85;;;;;;;14.43;100.00;101706.06;5066065;28;20017;-71
2023/05/14 07:12:57;;;;;;;28.20;19.00;;;;;;;14.47;100.00;101698.97;5086382;28;20028;-71
2023/05/14 07:15:22;;;;;;;28.73;19.25;;;;;;;14.45;100.00;101703.41;5085202;28;20527;-72
2023/05/14 07:17:48;;;;;;;26.90;19.33;;;;;;;14.51;100.00;101703.41;5085166;28;20111;-74
2023/05/14 07:20:13;;;;;;;28.23;19.02;;;;;;;14.53;100.00;101712.25;5087346;28;20024;-72
2023/05/14 07:22:38;;;;;;;28.35;18.63;;;;;;;14.38;100.00;101706.94;5085212;28;20036;-65
2023/05/14 07:25:05;;;;;;;28.70;18.70;;;;;;;14.30;100.00;101710.44;5071491;28;20030;-72
2023/05/14 07:27:30;;;;;;;29.42;18.67;;;;;;;14.26;100.00;101714.00;5084689;28;20059;-69
2023/05/14 07:29:55;;;;;;;28.42;18.60;;;;;;;14.28;100.00;101706.91;5080013;28;20036;-73
2023/05/14 07:32:21;;;;;;;29.75;19.92;;;;;;;14.29;100.00;101706.00;5074892;28;20032;-78
2023/05/14 07:34:46;;;;;;;29.92;19.77;;;;;;;14.43;100.00;101705.16;5080215;28;20674;-78
2023/05/14 07:37:11;;;;;;;27.95;19.13;;;;;;;14.54;100.00;101708.72;5080672;28;20452;-76
2023/05/14 07:39:37;;;;;;;27.52;18.55;;;;;;;14.49;100.00;101715.81;5080202;28;20035;-78
2023/05/14 07:42:03;;;;;;;27.83;18.45;;;;;;;14.58;100.00;101720.28;5078245;28;20146;-77
2023/05/14 07:44:28;;;;;;;28.33;19.08;;;;;;;14.62;100.00;101714.06;5083351;28;20048;-70
2023/05/14 07:46:54;;;;;;;28.55;18.52;;;;;;;14.68;100.00;101716.78;5079196;28;20379;-76
2023/05/14 07:49:19;;;;;;;28.25;18.20;;;;;;;14.83;100.00;101715.88;5072745;28;20121;-75
2023/05/14 07:51:45;;;;;;;26.85;17.70;;;;;;;14.94;100.00;101714.13;5077655;28;20025;-72
2023/05/14 07:54:10;;;;;;;27.40;18.15;;;;;;;14.93;100.00;101707.03;5077714;28;20025;-69
2023/05/14 07:56:35;;;;;;;27.50;17.70;;;;;;;14.91;100.00;101706.16;5074225;28;20503;-70
2023/05/14 07:59:01;;;;;;;28.38;17.80;;;;;;;14.96;100.00;101700.81;5080004;28;20024;-68
2023/05/14 08:01:26;;;;;;;28.00;18.35;;;;;;;15.04;100.00;101696.34;5083247;28;20078;-74
2023/05/14 08:03:51;;;;;;;27.85;17.67;;;;;;;15.16;100.00;101696.34;5084718;28;20028;-76
2023/05/14 08:06:17;;;;;;;26.38;18.00;;;;;;;15.26;100.00;101699.91;5084360;28;20111;-69
2023/05/14 08:08:42;;;;;;;27.40;17.83;;;;;;;15.29;100.00;101702.56;5069697;28;20028;-69
2023/05/14 08:11:08;;;;;;;26.33;17.63;;;;;;;15.54;100.00;101698.94;5083668;28;20098;-75
2023/05/14 08:13:33;;;;;;;26.77;17.13;;;;;;;15.91;100.00;101698.84;5084995;28;20488;-71
2023/05/14 08:15:59;;;;;;;27.80;18.50;;;;;;;16.17;100.00;101698.72;5083333;28;20107;-71
2023/05/14 08:18:24;;;;;;;27.40;18.73;;;;;;;16.37;100.00;101695.97;5079868;28;20031;-71
2023/05/14 08:20:50;;;;;;;27.00;17.77;;;;;;;16.49;100.00;101701.19;5077483;28;20032;-73
2023/05/14 08:23:15;;;;;;;27.23;18.02;;;;;;;16.58;100.00;101697.59;5082280;28;20051;-69
2023/05/14 08:25:40;;;;;;;27.27;16.98;;;;;;;16.56;100.00;101704.72;5061244;28;20032;-66
2023/05/14 08:28:06;;;;;;;26.25;16.95;;;;;;;16.62;100.00;101699.34;5078208;28;20081;-69
2023/05/14 08:30:32;;;;;;;26.05;16.00;;;;;;;16.68;100.00;101701.06;5074289;28;20024;-69
2023/05/14 08:32:57;;;;;;;25.40;16.13;;;;;;;17.08;100.00;101708.78;5086868;28;20093;-67
2023/05/14 08:35:23;;;;;;;25.10;15.27;;;;;;;17.28;100.00;101699.69;5094219;28;20136;-70
2023/05/14 08:37:49;;;;;;;25.45;15.30;;;;;;;17.39;100.00;101704.03;5093825;28;20103;-68
2023/05/14 08:40:14;;;;;;;25.48;15.43;;;;;;;17.49;100.00;101699.47;5094742;28;20016;-69
2023/05/14 08:42:40;;;;;;;25.17;14.70;;;;;;;17.66;100.00;101687.72;5053997;28;1095162;-70
2023/05/14 08:45:12;;;;;;;25.05;15.07;;;;;;;17.92;100.00;101687.41;5097777;28;20096;-73
2023/05/14 08:47:37;;;;;;;25.80;15.23;;;;;;;18.08;100.00;101688.97;5092715;28;20025;-69
2023/05/14 08:50:06;;;;;;;25.30;14.90;;;;;;;17.99;100.00;101689.09;5082736;28;20039;-66
2023/05/14 08:52:32;;;;;;;24.50;14.90;;;;;;;18.19;100.00;101686.16;5079969;28;20089;-66
2023/05/14 08:54:59;;;;;;;24.08;14.25;;;;;;;18.35;100.00;101681.47;5081082;28;20028;-66
2023/05/14 08:57:26;;;;;;;23.90;14.25;;;;;;;18.44;100.00;101680.47;5079549;28;20032;-65
2023/05/14 08:59:52;;;;;;;24.23;14.13;;;;;;;18.68;100.00;101678.28;5078191;28;20770;-66
2023/05/14 09:02:23;;;;;;;24.73;14.80;;;;;;;18.69;100.00;101669.38;5076305;28;20471;-68
2023/05/14 09:04:53;;;;;;;24.15;14.25;;;;;;;18.65;100.00;101671.19;5076676;28;20032;-66
2023/05/14 09:07:18;;;;;;;25.35;14.10;;;;;;;18.73;100.00;101666.59;5080732;28;20096;-68
2023/05/14 09:09:44;;;;;;;22.83;13.43;;;;;;;19.04;100.00;101673.25;5078353;28;20463;-67
2023/05/14 09:12:10;;;;;;;22.67;13.27;;;;;;;19.17;90.24;101662.28;5076924;28;20471;-67
2023/05/14 09:14:35;;;;;;;24.63;12.77;;;;;;;19.38;92.33;101660.09;5077185;28;20073;-67
2023/05/14 09:17:01;;;;;;;23.73;13.35;;;;;;;19.23;85.11;101655.91;5076592;28;20017;-67
2023/05/14 09:19:26;;;;;;;24.83;13.80;;;;;;;19.45;94.27;101655.50;5082541;28;20032;-67
2023/05/14 09:21:57;;;;;;;22.40;12.75;;;;;;;19.65;88.13;101661.34;5084049;28;20104;-67
2023/05/14 09:24:24;;;;;;;23.42;12.30;;;;;;;19.76;85.07;101661.16;5082073;28;20479;-67
2023/05/14 09:26:51;;;;;;;22.17;12.30;;;;;;;19.84;84.39;101661.00;5084400;28;20028;-67
2023/05/14 09:29:17;;;;;;;22.20;11.55;;;;;;;20.01;82.83;101650.78;5081285;28;20535;-70
2023/05/14 09:31:43;;;;;;;22.48;12.07;;;;;;;20.12;79.86;101649.66;5081950;28;20103;-74
2023/05/14 09:34:08;;;;;;;22.13;11.88;;;;;;;20.35;78.67;101658.06;5084520;28;20149;-73
2023/05/14 09:36:34;;;;;;;22.33;11.73;;;;;;;20.39;75.40;101650.81;5080988;28;20043;-69
2023/05/14 09:39:02;;;;;;;21.88;11.00;;;;;;;20.52;72.55;101643.34;5084066;28;20077;-68
2023/05/14 09:41:27;;;;;;;21.30;10.30;;;;;;;21.07;66.07;101650.03;5081736;28;20115;-76
2023/05/14 09:43:53;;;;;;;22.65;11.05;;;;;;;21.72;66.42;101652.72;5056711;28;20120;-77
2023/05/14 09:46:18;;;;;;;23.55;11.05;;;;;;;22.39;64.11;101644.41;5063112;28;20045;-73
2023/05/14 09:48:47;;;;;;;21.35;10.43;;;;;;;23.30;61.45;101643.16;5061451;28;20476;-78
2023/05/14 09:51:12;;;;;;;21.85;10.23;;;;;;;24.68;55.70;101645.00;5063391;28;20399;-68
2023/05/14 09:53:40;;;;;;;20.50;9.20;;;;;;;25.88;49.64;101657.69;5060981;28;20029;-73
2023/05/14 09:56:05;;;;;;;21.00;9.70;;;;;;;26.41;47.32;101645.22;5056927;28;20032;-70
2023/05/14 09:58:30;;;;;;;20.30;9.75;;;;;;;27.02;46.82;101634.94;5063524;28;20028;-76
2023/05/14 10:00:57;;;;;;;21.48;9.60;;;;;;;27.55;45.58;101645.75;5061894;28;20020;-69
2023/05/14 10:03:25;;;;;;;21.83;9.60;;;;;;;27.88;45.15;101634.84;5062987;28;20033;-75
2023/05/14 10:05:51;;;;;;;22.20;9.98;;;;;;;28.11;43.36;101636.31;5062679;28;20048;-76
2023/05/14 10:08:40;;;;;;;20.27;8.90;;;;;;;28.93;43.33;101644.25;5062614;28;20029;-70
2023/05/14 10:11:09;;;;;;;20.67;8.73;;;;;;;28.76;39.15;101642.53;5057341;28;20036;-66
2023/05/14 10:13:41;;;;;;;19.25;8.20;;;;;;;29.48;38.79;101640.84;5056809;28;20048;-67
2023/05/14 10:16:18;;;;;;;21.90;9.48;;;;;;;28.78;39.46;101629.75;5057124;28;20111;-67
2023/05/14 10:18:50;;;;;;;20.13;9.13;;;;;;;28.13;38.72;101637.06;5058863;28;20025;-67
2023/05/14 10:21:19;;;;;;;19.83;8.68;;;;;;;27.85;39.40;101635.03;5063043;28;20093;-67
2023/05/14 10:23:47;;;;;;;20.13;9.23;;;;;;;28.09;40.09;101632.81;5061712;28;20060;-67
2023/05/14 10:26:12;;;;;;;20.77;8.63;;;;;;;29.14;39.16;101632.06;5063197;28;20036;-67
2023/05/14 10:28:38;;;;;;;19.67;8.63;;;;;;;30.02;37.90;101631.97;5061981;28;20414;-68
2023/05/14 10:31:04;;;;;;;20.83;8.82;;;;;;;30.88;36.38;101632.66;5062829;28;20135;-67
2023/05/14 10:33:29;;;;;;;20.10;9.20;;;;;;;30.40;36.83;101624.94;5060742;28;20393;-67
2023/05/14 10:36:04;;;;;;;20.52;9.38;;;;;;;29.88;37.55;101627.44;5063985;28;20036;-67
2023/05/14 10:38:34;;;;;;;20.80;9.20;;;;;;;29.63;37.58;101628.09;5058097;28;20021;-68
2023/05/14 10:41:20;;;;;;;20.50;9.30;;;;;;;30.28;38.62;101628.53;5063171;28;20016;-67
2023/05/14 10:43:46;;;;;;;20.00;7.30;;;;;;;30.66;34.39;101619.63;5069338;28;20433;-68
2023/05/14 10:46:12;;;;;;;19.08;7.57;;;;;;;31.38;32.42;101620.03;5081535;28;20040;-67
2023/05/14 10:48:41;;;;;;;19.73;8.13;;;;;;;30.58;33.50;101610.09;5082139;28;20032;-68
2023/05/14 10:51:09;;;;;;;18.35;7.60;;;;;;;31.04;34.50;101605.19;5080211;28;20456;-68
2023/05/14 10:53:41;;;;;;;20.00;8.40;;;;;;;31.78;33.79;101608.09;5082804;28;20471;-67
2023/05/14 10:56:09;;;;;;;20.13;8.48;;;;;;;32.42;32.98;101609.75;5080367;28;20032;-72
2023/05/14 10:58:39;;;;;;;19.25;7.95;;;;;;;32.72;32.99;101606.50;5082772;28;20557;-70
2023/05/14 11:01:06;;;;;;;19.55;8.60;;;;;;;32.57;31.77;101602.22;5080697;28;20036;-73